Time;durP1;ratioP1;P1;durP2;ratioP2;P2;SDS_P1;SDS_P2;PMS_P1;PMS_P2;Temp;Humidity;BMP_temperature;BMP_pressure;BME280_temperature;BME280_humidity;BME280_pressure;Samples;Min_cycle;Max_cycle;Signal;HPM_P1;HPM_P2
2021/11/06 00:01:24;;;;;;;13.98;4.30;;;12.00;99.90;;;;;;5104024;28;20181;-74
2021/11/06 00:03:50;;;;;;;15.85;4.10;;;12.00;99.90;;;;;;5085658;28;20182;-74
2021/11/06 00:06:16;;;;;;;10.65;4.32;;;11.90;99.90;;;;;;5101908;28;20189;-74
2021/11/06 00:08:42;;;;;;;13.75;4.18;;;12.00;99.90;;;;;;5078940;28;20191;-74
2021/11/06 00:11:07;;;;;;;13.90;3.92;;;12.00;99.90;;;;;;5075304;28;20189;-74
2021/11/06 00:13:33;;;;;;;16.67;4.20;;;12.00;99.90;;;;;;5105945;28;20197;-73
2021/11/06 00:15:59;;;;;;;9.98;4.03;;;12.00;99.90;;;;;;5102609;28;20189;-73
2021/11/06 00:18:24;;;;;;;13.77;4.03;;;12.00;99.90;;;;;;5098046;28;20185;-75
2021/11/06 00:20:50;;;;;;;12.10;4.03;;;12.00;99.90;;;;;;5102279;28;20177;-74
2021/11/06 00:23:16;;;;;;;8.70;3.47;;;12.00;99.90;;;;;;5102420;28;20204;-74
2021/11/06 00:25:42;;;;;;;10.32;3.35;;;12.00;99.90;;;;;;5103035;28;20189;-74
2021/11/06 00:28:07;;;;;;;10.25;3.85;;;12.00;99.90;;;;;;5070691;28;20185;-74
2021/11/06 00:30:33;;;;;;;11.32;4.10;;;12.10;99.90;;;;;;5103919;28;20185;-74
2021/11/06 00:32:59;;;;;;;13.45;3.83;;;12.00;99.90;;;;;;5098828;28;20182;-73
2021/11/06 00:35:25;;;;;;;13.30;3.90;;;12.00;99.90;;;;;;5104506;28;20274;-74
2021/11/06 00:37:51;;;;;;;11.70;4.15;;;12.10;99.90;;;;;;5099133;28;20570;-74
2021/11/06 00:40:17;;;;;;;15.13;3.95;;;12.00;99.90;;;;;;5084568;28;20238;-74
2021/11/06 00:42:43;;;;;;;11.15;4.13;;;12.00;99.90;;;;;;5085623;28;20205;-74
2021/11/06 00:45:10;;;;;;;13.98;3.95;;;12.00;99.90;;;;;;5105450;28;20204;-75
2021/11/06 00:47:37;;;;;;;11.98;4.05;;;12.00;99.90;;;;;;5102028;28;20181;-73
2021/11/06 00:50:04;;;;;;;14.20;4.07;;;11.90;99.90;;;;;;5103459;28;20537;-74
2021/11/06 00:52:29;;;;;;;12.60;4.88;;;11.90;99.90;;;;;;5076272;28;20416;-74
2021/11/06 00:54:55;;;;;;;14.50;5.17;;;12.40;99.90;;;;;;5084618;28;20419;-73
2021/11/06 00:57:21;;;;;;;14.65;5.03;;;12.70;99.90;;;;;;5100969;28;20773;-74
2021/11/06 00:59:46;;;;;;;13.65;4.57;;;12.80;99.90;;;;;;5099606;28;20424;-74
2021/11/06 01:02:12;;;;;;;16.87;4.73;;;12.90;99.90;;;;;;5084770;28;20765;-74
2021/11/06 01:04:38;;;;;;;16.27;5.05;;;12.90;99.90;;;;;;5098973;28;20927;-74
2021/11/06 01:07:05;;;;;;;17.90;4.70;;;13.00;99.90;;;;;;5100703;28;20412;-72
2021/11/06 01:09:30;;;;;;;13.88;4.40;;;13.00;99.90;;;;;;5104738;28;20791;-74
2021/11/06 01:11:56;;;;;;;17.57;4.80;;;13.00;99.90;;;;;;5079698;28;20497;-74
2021/11/06 01:14:22;;;;;;;15.85;4.70;;;13.10;99.90;;;;;;5103038;28;20434;-74
2021/11/06 01:16:48;;;;;;;19.02;5.18;;;13.10;99.90;;;;;;5099745;28;20429;-73
2021/11/06 01:19:14;;;;;;;17.83;5.10;;;13.10;99.90;;;;;;5102901;28;20424;-74
2021/11/06 01:21:40;;;;;;;13.60;4.80;;;13.20;99.90;;;;;;5099206;28;20499;-74
2021/11/06 01:24:06;;;;;;;17.67;5.32;;;13.20;99.90;;;;;;5086338;28;20435;-74
2021/11/06 01:26:31;;;;;;;19.02;5.43;;;13.20;99.90;;;;;;5076321;28;20414;-75
2021/11/06 01:28:57;;;;;;;17.25;6.05;;;13.30;99.90;;;;;;5095221;28;20420;-74
2021/11/06 01:31:23;;;;;;;19.83;5.80;;;13.30;99.90;;;;;;5101331;28;20457;-73
2021/11/06 01:33:49;;;;;;;13.75;6.25;;;13.40;99.90;;;;;;5102320;28;20494;-74
2021/11/06 01:36:15;;;;;;;13.87;5.77;;;13.40;99.90;;;;;;5079850;28;20846;-73
2021/11/06 01:38:43;;;;;;;13.63;5.50;;;13.50;99.90;;;;;;5103536;28;20901;-73
2021/11/06 01:41:11;;;;;;;10.70;5.10;;;13.40;99.90;;;;;;5078700;28;20424;-74
2021/11/06 01:43:37;;;;;;;13.48;5.63;;;13.50;99.90;;;;;;5102529;28;20977;-73
2021/11/06 01:46:05;;;;;;;14.88;5.53;;;13.50;99.90;;;;;;5102645;28;20407;-74
2021/11/06 01:48:30;;;;;;;15.25;5.43;;;13.50;99.90;;;;;;5101962;28;20410;-73
2021/11/06 01:50:58;;;;;;;13.23;4.80;;;13.60;99.90;;;;;;5100774;28;20412;-73
2021/11/06 01:53:23;;;;;;;11.63;5.40;;;13.60;99.90;;;;;;5069208;28;20468;-74
2021/11/06 01:55:52;;;;;;;15.90;5.30;;;13.60;99.90;;;;;;5100705;28;20404;-73
2021/11/06 01:58:22;;;;;;;12.73;5.60;;;13.70;99.90;;;;;;5102731;28;20408;-73
2021/11/06 02:00:49;;;;;;;15.15;5.07;;;13.70;99.90;;;;;;5101173;28;20807;-74
2021/11/06 02:03:15;;;;;;;14.68;4.97;;;13.70;99.90;;;;;;5103059;28;20891;-74
2021/11/06 02:05:42;;;;;;;15.98;4.78;;;13.70;99.90;;;;;;5101595;28;20404;-73
2021/11/06 02:08:08;;;;;;;9.30;4.30;;;13.70;99.90;;;;;;5080301;28;20422;-74
2021/11/06 02:10:34;;;;;;;9.33;4.20;;;13.70;99.90;;;;;;5094724;28;20903;-73
2021/11/06 02:13:00;;;;;;;12.55;4.18;;;13.70;99.90;;;;;;5101865;28;20412;-72
2021/11/06 02:15:26;;;;;;;15.93;4.47;;;13.70;99.90;;;;;;5101988;28;20455;-73
2021/11/06 02:17:52;;;;;;;11.75;3.90;;;13.70;99.90;;;;;;5079592;28;20415;-73
2021/11/06 02:20:20;;;;;;;13.82;4.40;;;13.70;99.90;;;;;;5099595;28;20979;-73
2021/11/06 02:22:46;;;;;;;11.70;4.00;;;13.80;99.90;;;;;;5084367;28;20462;-73
2021/11/06 02:25:13;;;;;;;17.20;5.00;;;13.80;99.90;;;;;;5080432;28;21233;-73
2021/11/06 02:27:40;;;;;;;15.73;4.80;;;13.80;99.90;;;;;;5098634;28;20403;-73
2021/11/06 02:30:08;;;;;;;14.30;5.13;;;13.80;99.90;;;;;;5077346;28;20420;-73
2021/11/06 02:32:34;;;;;;;17.45;5.30;;;13.80;99.90;;;;;;5078927;28;20422;-74
2021/11/06 02:35:00;;;;;;;15.47;5.70;;;13.80;99.90;;;;;;5106468;28;20442;-73
2021/11/06 02:37:26;;;;;;;16.80;6.38;;;13.80;99.90;;;;;;5105875;28;20428;-73
2021/11/06 02:39:52;;;;;;;15.73;5.80;;;13.80;99.90;;;;;;5096905;28;20449;-74
2021/11/06 02:42:18;;;;;;;15.18;5.90;;;13.80;99.90;;;;;;5102535;28;20508;-72
2021/11/06 02:44:44;;;;;;;14.27;5.83;;;13.80;99.90;;;;;;5088774;28;20404;-73
2021/11/06 02:47:10;;;;;;;14.15;6.38;;;13.80;99.90;;;;;;5084816;28;20407;-73
2021/11/06 02:49:35;;;;;;;17.80;6.38;;;13.80;99.90;;;;;;5072354;28;20982;-73
2021/11/06 02:52:02;;;;;;;17.07;7.20;;;13.80;99.90;;;;;;5103053;28;20416;-73
2021/11/06 02:54:28;;;;;;;15.68;7.13;;;13.80;99.90;;;;;;5101661;28;20417;-73
2021/11/06 02:56:53;;;;;;;16.65;7.25;;;13.80;99.90;;;;;;5098520;28;20427;-74
2021/11/06 02:59:19;;;;;;;16.47;6.40;;;13.80;99.90;;;;;;5085360;28;20404;-74
2021/11/06 03:01:45;;;;;;;16.02;6.57;;;13.80;99.90;;;;;;5101228;28;20408;-73
2021/11/06 03:04:13;;;;;;;16.58;5.80;;;13.80;99.90;;;;;;5093024;28;20743;-72
2021/11/06 03:06:39;;;;;;;11.00;5.70;;;13.80;99.90;;;;;;5103198;28;20501;-73
2021/11/06 03:09:05;;;;;;;18.63;6.23;;;13.70;99.90;;;;;;5079935;28;20477;-73
2021/11/06 03:11:33;;;;;;;19.77;6.07;;;13.70;99.90;;;;;;5100476;28;20447;-73
2021/11/06 03:14:01;;;;;;;16.42;5.97;;;13.80;99.90;;;;;;5098352;28;20423;-74
2021/11/06 03:16:27;;;;;;;15.18;5.78;;;13.70;99.90;;;;;;5099708;28;20427;-73
2021/11/06 03:18:53;;;;;;;15.85;5.93;;;13.70;99.90;;;;;;5102757;28;20488;-73
2021/11/06 03:21:19;;;;;;;13.52;5.40;;;13.80;99.90;;;;;;5088296;28;20427;-72
2021/11/06 03:23:45;;;;;;;15.85;5.57;;;13.80;99.90;;;;;;5084297;28;21188;-73
2021/11/06 03:26:11;;;;;;;18.58;5.70;;;13.80;99.90;;;;;;5105275;28;20440;-74
2021/11/06 03:28:37;;;;;;;19.67;5.70;;;13.90;99.90;;;;;;5102331;28;20494;-74
2021/11/06 03:31:03;;;;;;;15.82;6.00;;;13.90;99.90;;;;;;5098861;28;20566;-73
2021/11/06 03:33:29;;;;;;;17.92;6.10;;;13.90;99.90;;;;;;5086749;28;20392;-73
2021/11/06 03:35:55;;;;;;;15.30;5.37;;;13.90;99.90;;;;;;5091180;28;20419;-74
2021/11/06 03:38:22;;;;;;;17.17;5.40;;;13.90;99.90;;;;;;5104510;28;20569;-72
2021/11/06 03:40:48;;;;;;;15.18;5.65;;;13.90;99.90;;;;;;5097875;28;20444;-72
2021/11/06 03:43:14;;;;;;;15.77;4.80;;;13.90;99.90;;;;;;5099481;28;22488;-73
2021/11/06 03:45:39;;;;;;;19.07;5.37;;;13.90;99.90;;;;;;5084028;28;20429;-71
2021/11/06 03:48:05;;;;;;;12.52;5.00;;;13.90;99.90;;;;;;5099237;28;21088;-73
2021/11/06 03:50:31;;;;;;;16.77;5.30;;;14.00;99.90;;;;;;5100137;28;20461;-73
2021/11/06 03:52:57;;;;;;;19.52;5.50;;;14.00;99.90;;;;;;5102637;28;20404;-73
2021/11/06 03:55:22;;;;;;;16.58;4.78;;;14.00;99.90;;;;;;5097109;28;20885;-72
2021/11/06 03:57:48;;;;;;;16.27;5.30;;;14.00;99.90;;;;;;5103489;28;20903;-73
2021/11/06 04:00:16;;;;;;;16.85;5.05;;;14.00;99.90;;;;;;5103552;28;20815;-74
2021/11/06 04:02:43;;;;;;;19.23;4.78;;;14.00;99.90;;;;;;5093160;28;20422;-72
2021/11/06 04:05:09;;;;;;;15.00;5.17;;;14.00;99.90;;;;;;5104414;28;20416;-73
2021/11/06 04:07:35;;;;;;;16.00;5.10;;;14.00;99.90;;;;;;5103324;28;20406;-73
2021/11/06 04:10:01;;;;;;;18.48;5.43;;;14.00;99.90;;;;;;5104981;28;21210;-73
2021/11/06 04:12:27;;;;;;;15.48;4.97;;;14.00;99.90;;;;;;5103021;28;20419;-74
2021/11/06 04:14:53;;;;;;;14.20;5.17;;;14.00;99.90;;;;;;5102125;28;20471;-74
2021/11/06 04:17:18;;;;;;;14.05;4.88;;;14.00;99.90;;;;;;5083436;28;20501;-73
2021/11/06 04:19:44;;;;;;;13.87;4.87;;;14.00;99.90;;;;;;5098697;28;20414;-72
2021/11/06 04:22:10;;;;;;;14.10;4.93;;;14.00;99.90;;;;;;5097349;28;20421;-73
2021/11/06 04:24:36;;;;;;;11.83;4.83;;;14.00;99.90;;;;;;5089465;28;20473;-72
2021/11/06 04:27:02;;;;;;;15.48;4.97;;;14.00;99.90;;;;;;5104086;28;20826;-72
2021/11/06 04:29:28;;;;;;;15.25;4.97;;;14.00;99.90;;;;;;5103872;28;20423;-72
2021/11/06 04:31:54;;;;;;;14.38;4.63;;;14.00;99.90;;;;;;5103478;28;20416;-73
2021/11/06 04:34:20;;;;;;;15.00;4.80;;;14.00;99.90;;;;;;5101923;28;20415;-72
2021/11/06 04:36:46;;;;;;;15.90;4.80;;;14.00;99.90;;;;;;5104468;28;20408;-74
2021/11/06 04:39:12;;;;;;;15.95;4.97;;;14.00;99.90;;;;;;5066185;28;20416;-74
2021/11/06 04:41:37;;;;;;;16.77;5.53;;;14.00;99.90;;;;;;5096771;28;20417;-72
2021/11/06 04:44:03;;;;;;;14.50;5.60;;;14.10;99.90;;;;;;5097015;28;20426;-73
2021/11/06 04:46:29;;;;;;;17.83;5.93;;;14.00;99.90;;;;;;5083552;28;20404;-73
2021/11/06 04:48:54;;;;;;;18.45;6.40;;;14.00;99.90;;;;;;5095247;28;20420;-74
2021/11/06 04:51:20;;;;;;;17.40;5.80;;;14.10;99.90;;;;;;5103180;28;20447;-73
2021/11/06 04:53:46;;;;;;;17.53;6.20;;;14.00;99.90;;;;;;5101806;28;20586;-73
2021/11/06 04:56:11;;;;;;;15.10;5.90;;;14.10;99.90;;;;;;5102110;28;20457;-73
2021/11/06 04:58:37;;;;;;;16.97;5.60;;;14.10;99.90;;;;;;5093788;28;20514;-71
2021/11/06 05:01:03;;;;;;;18.30;6.10;;;14.00;99.90;;;;;;5100145;28;20415;-71
2021/11/06 05:03:28;;;;;;;17.20;6.53;;;14.00;99.90;;;;;;5104442;28;20404;-73
2021/11/06 05:05:54;;;;;;;18.10;6.60;;;14.00;99.90;;;;;;5102817;28;20451;-74
2021/11/06 05:08:20;;;;;;;18.00;7.00;;;14.00;99.90;;;;;;5099622;28;20414;-73
2021/11/06 05:10:45;;;;;;;16.02;6.10;;;14.00;99.90;;;;;;5102388;28;20428;-73
2021/11/06 05:13:12;;;;;;;16.57;6.57;;;14.00;99.90;;;;;;5085638;28;20505;-74
2021/11/06 05:15:38;;;;;;;18.40;6.97;;;14.00;99.90;;;;;;5097799;28;20496;-73
2021/11/06 05:18:05;;;;;;;17.40;6.93;;;14.00;99.90;;;;;;5103314;28;20419;-73
2021/11/06 05:20:32;;;;;;;17.97;7.57;;;14.00;99.90;;;;;;5099293;28;20424;-73
2021/11/06 05:22:58;;;;;;;20.60;7.30;;;14.00;99.90;;;;;;5076507;28;20768;-72
2021/11/06 05:25:23;;;;;;;19.58;7.30;;;14.00;99.90;;;;;;5095286;28;20416;-72
2021/11/06 05:27:49;;;;;;;18.52;7.80;;;14.00;99.90;;;;;;5095818;28;20464;-73
2021/11/06 05:30:15;;;;;;;16.83;7.30;;;14.10;99.90;;;;;;5101355;28;20441;-73
2021/11/06 05:32:42;;;;;;;15.10;6.68;;;14.00;99.90;;;;;;5100232;28;20419;-72
2021/11/06 05:35:10;;;;;;;17.23;6.80;;;14.00;99.90;;;;;;5092268;28;20491;-74
2021/11/06 05:37:36;;;;;;;17.00;6.82;;;14.00;99.90;;;;;;5100554;28;20423;-72
2021/11/06 05:40:02;;;;;;;15.07;6.88;;;14.00;99.90;;;;;;5099945;28;20431;-74
2021/11/06 05:42:28;;;;;;;16.48;7.05;;;14.00;99.90;;;;;;5081188;28;20499;-72
2021/11/06 05:44:53;;;;;;;19.07;7.33;;;14.00;99.90;;;;;;5085527;28;20518;-72
2021/11/06 05:47:19;;;;;;;16.73;7.00;;;14.00;99.90;;;;;;5098272;28;21340;-74
2021/11/06 05:49:44;;;;;;;15.93;6.37;;;14.00;99.90;;;;;;5094679;28;20449;-73
2021/11/06 05:52:10;;;;;;;17.58;6.88;;;14.00;99.90;;;;;;5098717;28;20431;-72
2021/11/06 05:54:36;;;;;;;14.33;6.33;;;14.00;99.90;;;;;;5095358;28;21023;-73
2021/11/06 05:57:01;;;;;;;18.40;6.40;;;14.10;99.90;;;;;;5095731;28;20851;-71
2021/11/06 05:59:27;;;;;;;15.88;6.43;;;14.00;99.90;;;;;;5102396;28;20428;-72
2021/11/06 06:01:52;;;;;;;17.27;6.27;;;14.00;99.90;;;;;;5096889;28;20419;-73
2021/11/06 06:04:18;;;;;;;16.23;6.70;;;14.00;99.80;;;;;;5101875;28;21148;-74
2021/11/06 06:06:44;;;;;;;13.23;6.38;;;14.00;99.90;;;;;;5097919;28;20495;-72
2021/11/06 06:09:10;;;;;;;16.70;6.53;;;14.00;99.60;;;;;;5103121;28;20423;-73
2021/11/06 06:11:35;;;;;;;17.30;6.70;;;14.00;99.30;;;;;;5104503;28;20444;-73
2021/11/06 06:14:01;;;;;;;14.68;6.60;;;14.00;99.20;;;;;;5105925;28;20411;-72
2021/11/06 06:16:26;;;;;;;16.35;6.85;;;14.00;99.20;;;;;;5100634;28;20991;-72
2021/11/06 06:18:52;;;;;;;16.00;6.80;;;14.10;99.40;;;;;;5086827;28;20550;-74
2021/11/06 06:21:18;;;;;;;18.15;7.13;;;14.10;99.30;;;;;;5084666;28;20458;-72
2021/11/06 06:23:44;;;;;;;14.82;6.40;;;14.10;99.30;;;;;;5098817;28;20545;-71
2021/11/06 06:26:10;;;;;;;18.85;6.50;;;14.10;99.30;;;;;;5086941;28;20534;-72
2021/11/06 06:28:36;;;;;;;19.27;7.18;;;14.10;99.10;;;;;;5076354;28;20458;-73
2021/11/06 06:31:01;;;;;;;18.10;6.68;;;14.10;99.00;;;;;;5102667;28;20469;-74
2021/11/06 06:33:27;;;;;;;17.03;6.63;;;14.10;98.90;;;;;;5107498;28;20380;-74
2021/11/06 06:35:53;;;;;;;13.77;6.47;;;14.10;98.90;;;;;;5101793;28;20420;-74
2021/11/06 06:38:18;;;;;;;14.25;6.40;;;14.10;98.80;;;;;;5104785;28;20887;-73
2021/11/06 06:40:44;;;;;;;17.67;6.03;;;14.10;98.60;;;;;;5103002;28;20424;-72
2021/11/06 06:43:10;;;;;;;13.40;6.40;;;14.10;98.40;;;;;;5101099;28;20927;-73
2021/11/06 06:45:35;;;;;;;11.95;5.70;;;14.10;98.10;;;;;;5099058;28;20419;-73
2021/11/06 06:48:01;;;;;;;16.50;6.00;;;14.10;98.00;;;;;;5105224;28;20554;-76
2021/11/06 06:50:27;;;;;;;16.40;5.87;;;14.10;97.90;;;;;;5105151;28;20888;-74
2021/11/06 06:52:52;;;;;;;13.55;5.53;;;14.10;97.90;;;;;;5096712;28;20918;-74
2021/11/06 06:55:18;;;;;;;15.75;5.53;;;14.10;97.90;;;;;;5107547;28;20419;-74
2021/11/06 06:57:44;;;;;;;12.48;4.53;;;14.10;97.80;;;;;;5103917;28;20415;-75
2021/11/06 07:00:11;;;;;;;9.38;3.67;;;14.10;97.10;;;;;;5102688;28;20490;-75
2021/11/06 07:02:38;;;;;;;12.25;4.10;;;14.10;96.60;;;;;;5096615;28;20449;-73
2021/11/06 07:05:04;;;;;;;13.05;3.90;;;14.10;96.60;;;;;;5099373;28;20445;-73
2021/11/06 07:07:30;;;;;;;10.10;3.75;;;14.10;96.60;;;;;;5104969;28;20408;-74
2021/11/06 07:09:56;;;;;;;14.03;4.17;;;14.10;96.60;;;;;;5088878;28;20428;-74
2021/11/06 07:12:25;;;;;;;13.90;4.43;;;14.20;96.70;;;;;;5103689;28;21323;-73
2021/11/06 07:14:51;;;;;;;9.90;4.88;;;14.10;96.90;;;;;;5106078;28;20416;-70
2021/11/06 07:17:17;;;;;;;14.80;5.15;;;14.10;96.90;;;;;;5101031;28;20424;-71
2021/11/06 07:19:43;;;;;;;13.10;5.10;;;14.10;96.80;;;;;;5104107;28;20778;-71
2021/11/06 07:22:08;;;;;;;10.57;4.85;;;14.10;96.70;;;;;;5103529;28;20401;-72
2021/11/06 07:24:36;;;;;;;14.75;5.13;;;14.10;96.60;;;;;;5106207;28;20408;-70
2021/11/06 07:27:06;;;;;;;13.63;4.88;;;14.20;96.70;;;;;;5102307;28;20427;-70
2021/11/06 07:29:32;;;;;;;18.77;5.38;;;14.20;96.60;;;;;;5105272;28;20404;-72
2021/11/06 07:31:58;;;;;;;12.77;5.00;;;14.20;96.60;;;;;;5085418;28;20404;-70
2021/11/06 07:34:24;;;;;;;12.40;4.90;;;14.20;96.30;;;;;;5086023;28;20960;-71
2021/11/06 07:36:50;;;;;;;13.30;5.30;;;14.20;96.20;;;;;;5103178;28;20973;-71
2021/11/06 07:39:19;;;;;;;11.38;5.28;;;14.20;96.20;;;;;;5102256;28;20881;-71
2021/11/06 07:41:45;;;;;;;15.05;5.60;;;14.20;96.20;;;;;;5100782;28;20940;-70
2021/11/06 07:44:11;;;;;;;16.17;5.80;;;14.30;96.40;;;;;;5106406;28;20415;-71
2021/11/06 07:46:39;;;;;;;19.17;6.20;;;14.30;96.60;;;;;;5102001;28;20416;-72
2021/11/06 07:49:05;;;;;;;15.32;5.93;;;14.30;96.70;;;;;;5101967;28;20443;-72
2021/11/06 07:51:30;;;;;;;16.77;6.55;;;14.40;96.30;;;;;;5101690;28;20510;-74
2021/11/06 07:53:57;;;;;;;18.90;6.78;;;14.40;95.90;;;;;;5095110;28;20566;-75
2021/11/06 07:56:22;;;;;;;16.50;6.40;;;14.30;95.90;;;;;;5098986;28;20927;-73
2021/11/06 07:58:48;;;;;;;17.47;6.60;;;14.30;96.00;;;;;;5105666;28;20508;-76
2021/11/06 08:01:14;;;;;;;15.23;6.00;;;14.30;96.00;;;;;;5084395;28;20498;-74
2021/11/06 08:03:40;;;;;;;15.03;5.30;;;14.40;95.90;;;;;;5102916;28;20524;-75
2021/11/06 08:06:06;;;;;;;10.40;4.60;;;14.40;95.70;;;;;;5098631;28;20400;-75
2021/11/06 08:08:32;;;;;;;12.02;4.22;;;14.40;95.30;;;;;;5096749;28;20401;-75
2021/11/06 08:10:58;;;;;;;11.73;4.40;;;14.40;95.40;;;;;;5106149;28;20412;-75
2021/11/06 08:13:24;;;;;;;11.25;4.20;;;14.40;95.50;;;;;;5099577;28;20412;-77
2021/11/06 08:15:50;;;;;;;14.80;4.85;;;14.40;95.80;;;;;;5100378;28;20420;-75
2021/11/06 08:18:16;;;;;;;17.03;4.73;;;14.40;95.90;;;;;;5098021;28;21256;-74
2021/11/06 08:20:41;;;;;;;14.93;4.53;;;14.40;96.10;;;;;;5103547;28;20495;-74
2021/11/06 08:23:07;;;;;;;17.02;4.85;;;14.40;96.20;;;;;;5101631;28;20403;-75
2021/11/06 08:25:34;;;;;;;13.80;4.50;;;14.30;96.30;;;;;;5105009;28;20396;-75
2021/11/06 08:27:59;;;;;;;16.13;4.80;;;14.40;96.50;;;;;;5107168;28;20483;-76
2021/11/06 08:30:27;;;;;;;18.05;5.25;;;14.40;96.70;;;;;;5083650;28;20507;-75
2021/11/06 08:32:55;;;;;;;11.57;4.70;;;14.30;96.80;;;;;;5085435;28;20407;-75
2021/11/06 08:35:25;;;;;;;20.25;5.68;;;14.30;96.90;;;;;;5105069;28;20419;-76
2021/11/06 08:37:52;;;;;;;16.87;5.87;;;14.30;97.20;;;;;;5104453;28;20504;-75
2021/11/06 08:40:18;;;;;;;18.20;6.03;;;14.30;97.30;;;;;;5105243;28;20443;-76
2021/11/06 08:42:44;;;;;;;16.42;6.00;;;14.30;97.40;;;;;;5102963;28;20417;-73
2021/11/06 08:45:12;;;;;;;17.80;5.93;;;14.30;97.40;;;;;;5074698;28;20408;-75
2021/11/06 08:47:38;;;;;;;13.52;5.57;;;14.30;97.30;;;;;;5086708;28;20435;-76
2021/11/06 08:50:07;;;;;;;14.85;5.85;;;14.30;97.20;;;;;;5085527;28;20419;-77
2021/11/06 08:52:33;;;;;;;15.38;5.50;;;14.30;96.70;;;;;;5103333;28;20412;-76
2021/11/06 08:54:59;;;;;;;15.60;5.35;;;14.40;96.40;;;;;;5079620;28;20404;-74
2021/11/06 08:57:25;;;;;;;16.10;5.60;;;14.40;96.00;;;;;;5099371;28;20389;-74
2021/11/06 08:59:54;;;;;;;15.37;5.33;;;14.40;95.80;;;;;;5085912;28;20927;-75
2021/11/06 09:02:20;;;;;;;15.88;5.75;;;14.50;95.70;;;;;;5087524;28;20415;-76
2021/11/06 09:04:49;;;;;;;16.85;5.72;;;14.60;95.60;;;;;;5105772;28;20412;-74
2021/11/06 09:07:16;;;;;;;16.38;6.00;;;14.70;95.30;;;;;;5078680;28;20404;-76
2021/11/06 09:09:42;;;;;;;18.42;6.35;;;14.80;95.00;;;;;;5099185;28;20408;-74
2021/11/06 09:12:08;;;;;;;16.10;5.65;;;14.90;94.90;;;;;;5077010;28;20404;-74
2021/11/06 09:14:34;;;;;;;16.45;5.30;;;15.00;94.60;;;;;;5069409;28;20854;-75
2021/11/06 09:16:59;;;;;;;14.43;5.10;;;15.00;94.50;;;;;;5086338;28;20892;-75
2021/11/06 09:19:25;;;;;;;13.48;4.63;;;15.00;94.10;;;;;;5094762;28;20420;-74
2021/11/06 09:21:51;;;;;;;12.37;4.30;;;15.00;94.10;;;;;;5103670;28;20510;-74
2021/11/06 09:24:18;;;;;;;17.30;4.70;;;15.00;94.10;;;;;;5101908;28;20444;-77
2021/11/06 09:26:46;;;;;;;11.88;3.83;;;14.90;94.30;;;;;;5104597;28;20414;-75
2021/11/06 09:29:14;;;;;;;10.27;4.00;;;14.90;94.40;;;;;;5098490;28;20408;-76
2021/11/06 09:31:41;;;;;;;12.40;3.70;;;14.80;94.60;;;;;;5085054;28;20925;-76
2021/11/06 09:34:08;;;;;;;11.73;3.60;;;14.80;94.80;;;;;;5100951;28;20438;-76
2021/11/06 09:36:35;;;;;;;9.45;3.20;;;14.80;95.00;;;;;;5104037;28;20828;-75
2021/11/06 09:39:04;;;;;;;10.93;3.00;;;14.80;95.10;;;;;;5104476;28;20456;-76
2021/11/06 09:41:31;;;;;;;9.80;2.45;;;14.80;95.00;;;;;;5095478;28;21141;-76
2021/11/06 09:43:57;;;;;;;9.27;2.47;;;14.90;94.80;;;;;;5105143;28;20398;-76
2021/11/06 09:46:23;;;;;;;8.45;2.25;;;14.90;94.60;;;;;;5074092;28;20403;-76
2021/11/06 09:48:49;;;;;;;8.63;2.22;;;15.00;94.50;;;;;;5080920;28;20477;-74
2021/11/06 09:51:17;;;;;;;8.10;2.20;;;15.10;94.20;;;;;;5102129;28;20519;-77
2021/11/06 09:53:45;;;;;;;11.03;2.40;;;15.20;94.30;;;;;;5067899;28;20423;-74
2021/11/06 09:56:14;;;;;;;8.82;2.60;;;15.40;94.00;;;;;;5071177;28;20416;-77
2021/11/06 09:58:40;;;;;;;9.13;2.90;;;15.50;94.00;;;;;;5100329;28;20416;-77
2021/11/06 10:01:06;;;;;;;10.98;2.80;;;15.50;93.70;;;;;;5076933;28;20433;-76
2021/11/06 10:03:34;;;;;;;10.60;2.88;;;15.60;93.90;;;;;;5102868;28;20407;-76
2021/11/06 10:06:05;;;;;;;9.57;3.05;;;15.60;94.00;;;;;;5077848;28;20400;-74
2021/11/06 10:08:38;;;;;;;12.23;3.60;;;15.50;94.00;;;;;;5099341;28;20458;-73
2021/11/06 10:11:19;;;;;;;12.00;3.40;;;15.40;94.00;;;;;;5102039;28;20433;-76
2021/11/06 10:13:57;;;;;;;10.35;3.30;;;15.30;93.80;;;;;;5102467;28;20403;-74
2021/11/06 10:16:30;;;;;;;12.20;3.00;;;15.20;94.10;;;;;;5094827;28;20800;-73
2021/11/06 10:19:28;;;;;;;12.45;3.28;;;15.10;94.40;;;;;;5099753;28;20400;-72
2021/11/06 10:22:20;;;;;;;10.50;3.03;;;15.00;94.40;;;;;;5104493;28;20415;-72
2021/11/06 10:24:59;;;;;;;11.25;2.85;;;14.90;94.60;;;;;;5083157;28;20441;-74
2021/11/06 10:27:32;;;;;;;12.02;3.75;;;15.00;94.70;;;;;;5102780;28;20742;-73
2021/11/06 10:30:24;;;;;;;11.13;3.42;;;15.00;94.70;;;;;;5101377;28;20408;-74
2021/11/06 10:33:00;;;;;;;12.77;3.20;;;15.00;94.50;;;;;;5103705;28;20392;-74
2021/11/06 10:35:28;;;;;;;9.18;3.20;;;15.00;94.50;;;;;;5102555;28;20419;-73
2021/11/06 10:38:15;;;;;;;9.55;2.58;;;15.20;94.80;;;;;;5063258;28;20438;-74
2021/11/06 10:40:47;;;;;;;11.38;2.58;;;15.40;94.00;;;;;;5102745;28;20418;-74
2021/11/06 10:43:15;;;;;;;12.48;2.60;;;15.70;93.70;;;;;;5098217;28;20990;-74
2021/11/06 10:45:47;;;;;;;8.88;2.60;;;15.90;93.30;;;;;;5100610;28;20189;-75
2021/11/06 10:48:16;;;;;;;11.75;2.55;;;15.50;94.00;;;;;;5101389;28;20233;-74
2021/11/06 10:50:42;;;;;;;10.85;2.80;;;15.20;94.90;;;;;;5099382;28;20190;-75
2021/11/06 10:53:08;;;;;;;8.52;2.38;;;14.90;94.90;;;;;;5103226;28;20189;-74
2021/11/06 10:55:40;;;;;;;11.15;2.65;;;14.80;95.20;;;;;;5081389;28;20200;-75
2021/11/06 10:58:30;;;;;;;7.43;2.30;;;14.60;95.50;;;;;;5079192;28;20516;-75
2021/11/06 11:01:04;;;;;;;10.27;2.58;;;14.50;95.70;;;;;;5083491;28;20213;-74
2021/11/06 11:03:32;;;;;;;9.60;2.78;;;14.40;95.90;;;;;;5083045;28;20411;-73
2021/11/06 11:06:05;;;;;;;8.70;2.67;;;14.80;95.70;;;;;;5097591;28;20194;-73
2021/11/06 11:08:30;;;;;;;10.63;2.45;;;14.50;95.90;;;;;;5106070;28;20272;-74
2021/11/06 11:11:06;;;;;;;10.48;2.78;;;14.30;96.30;;;;;;5105043;28;20304;-72
2021/11/06 11:13:32;;;;;;;9.77;2.42;;;14.20;96.60;;;;;;5087357;28;20197;-74
2021/11/06 11:16:16;;;;;;;11.35;3.00;;;14.10;96.80;;;;;;5084473;28;20261;-74
2021/11/06 11:18:45;;;;;;;13.80;2.92;;;14.00;97.00;;;;;;5080018;28;20200;-74
2021/11/06 11:21:25;;;;;;;13.48;3.40;;;13.90;97.10;;;;;;5099922;28;20280;-73
2021/11/06 11:23:54;;;;;;;9.65;3.00;;;13.90;97.30;;;;;;5086362;28;20238;-74
2021/11/06 11:26:24;;;;;;;15.07;2.88;;;13.90;97.50;;;;;;5080239;28;20193;-73
2021/11/06 11:28:51;;;;;;;15.07;2.90;;;13.90;97.60;;;;;;5105766;28;20258;-74
2021/11/06 11:31:18;;;;;;;17.23;3.95;;;13.90;97.60;;;;;;5105062;28;20547;-73
2021/11/06 11:33:44;;;;;;;20.23;4.97;;;13.90;97.70;;;;;;5106110;28;20633;-73
2021/11/06 11:36:13;;;;;;;19.13;5.70;;;13.90;97.90;;;;;;5095194;28;20650;-72
2021/11/06 11:38:40;;;;;;;22.13;5.75;;;13.80;98.00;;;;;;5091907;28;20225;-73
2021/11/06 11:41:33;;;;;;;16.08;5.30;;;13.70;98.20;;;;;;5103999;28;20235;-73
2021/11/06 11:44:38;;;;;;;24.77;5.93;;;13.70;98.70;;;;;;5104626;28;20566;-74
2021/11/06 11:47:13;;;;;;;30.20;5.97;;;13.60;99.10;;;;;;5103878;28;21020;-74
2021/11/06 11:49:42;;;;;;;31.52;5.78;;;13.50;99.10;;;;;;5088092;28;20304;-73
2021/11/06 11:52:25;;;;;;;22.38;5.72;;;13.40;99.30;;;;;;5082268;28;20186;-72
2021/11/06 11:54:59;;;;;;;25.55;5.57;;;13.40;99.70;;;;;;5096455;28;20630;-74
2021/11/06 11:57:25;;;;;;;27.92;6.00;;;13.40;99.80;;;;;;5084397;28;20188;-73
2021/11/06 11:59:51;;;;;;;23.95;5.20;;;13.40;99.90;;;;;;5099160;28;20205;-74
2021/11/06 12:02:22;;;;;;;24.90;5.22;;;13.30;99.90;;;;;;5093596;28;20299;-74
2021/11/06 12:05:14;;;;;;;36.03;6.50;;;13.30;99.90;;;;;;5100410;28;20276;-73
2021/11/06 12:07:40;;;;;;;31.70;6.47;;;13.20;99.90;;;;;;5101300;28;20241;-72
2021/11/06 12:10:27;;;;;;;30.60;6.30;;;13.20;99.90;;;;;;5103786;28;20200;-73
2021/11/06 12:12:54;;;;;;;23.85;6.03;;;13.10;99.90;;;;;;5084791;28;20192;-74
2021/11/06 12:15:20;;;;;;;21.77;6.03;;;13.10;99.90;;;;;;5098128;28;20190;-74
2021/11/06 12:17:46;;;;;;;27.02;6.22;;;13.10;99.90;;;;;;5098432;28;20184;-74
2021/11/06 12:20:27;;;;;;;33.90;6.22;;;13.10;99.90;;;;;;5082298;28;20213;-75
2021/11/06 12:22:53;;;;;;;28.52;6.60;;;13.10;99.90;;;;;;5101132;28;20201;-72
2021/11/06 12:25:22;;;;;;;27.20;6.63;;;13.10;99.90;;;;;;5100470;28;20181;-75
2021/11/06 12:27:53;;;;;;;23.48;5.35;;;13.10;99.90;;;;;;5106234;28;20250;-74
2021/11/06 12:30:39;;;;;;;24.52;5.82;;;13.10;99.90;;;;;;5100075;28;20550;-72
2021/11/06 12:33:07;;;;;;;21.88;5.55;;;13.10;99.90;;;;;;5087830;28;20295;-72
2021/11/06 12:35:33;;;;;;;26.45;6.32;;;13.00;99.90;;;;;;5105692;28;20192;-72
2021/11/06 12:38:01;;;;;;;19.70;4.80;;;13.00;99.90;;;;;;5082906;28;20573;-75
2021/11/06 12:40:33;;;;;;;16.90;5.28;;;13.00;99.90;;;;;;5096191;28;20285;-73